createdAt,value
2018-09-24T00:01:54.343Z,20.80
2018-09-24T00:04:22.968Z,19.03
2018-09-24T00:06:51.582Z,16.57
2018-09-24T00:09:20.439Z,19.80
2018-09-24T00:11:48.973Z,16.47
2018-09-24T00:14:17.569Z,17.17
2018-09-24T00:16:46.170Z,18.33
2018-09-24T00:19:14.735Z,17.67
2018-09-24T00:21:43.246Z,18.93
2018-09-24T00:24:11.896Z,21.03
2018-09-24T00:26:40.443Z,17.50
2018-09-24T00:29:08.981Z,18.80
2018-09-24T00:31:37.440Z,18.37
2018-09-24T00:34:05.982Z,17.40
2018-09-24T00:36:34.490Z,15.43
2018-09-24T00:39:03.045Z,18.67
2018-09-24T00:41:31.571Z,15.77
2018-09-24T00:44:00.039Z,14.87
2018-09-24T00:46:28.563Z,13.07
2018-09-24T00:48:57.051Z,14.20
2018-09-24T00:51:25.513Z,11.77
2018-09-24T00:53:53.999Z,15.43
2018-09-24T00:56:22.591Z,10.90
2018-09-24T00:58:51.055Z,16.47
2018-09-24T01:01:19.544Z,14.70
2018-09-24T01:03:48.109Z,15.60
2018-09-24T01:06:16.623Z,12.70
2018-09-24T01:08:45.136Z,15.53
2018-09-24T01:11:13.627Z,15.30
2018-09-24T01:13:42.166Z,15.60
2018-09-24T01:16:10.643Z,13.87
2018-09-24T01:18:39.216Z,17.33
2018-09-24T01:21:07.715Z,18.70
2018-09-24T01:23:36.229Z,22.30
2018-09-24T01:26:04.830Z,19.77
2018-09-24T01:28:33.310Z,22.33
2018-09-24T01:31:01.793Z,21.03
2018-09-24T01:33:30.296Z,28.40
2018-09-24T01:35:58.809Z,31.73
2018-09-24T01:38:27.291Z,25.60
2018-09-24T01:40:55.804Z,28.87
2018-09-24T01:43:24.285Z,30.63
2018-09-24T01:45:52.819Z,27.80
2018-09-24T01:48:21.306Z,26.53
2018-09-24T01:50:49.814Z,27.70
2018-09-24T01:53:18.309Z,25.67
2018-09-24T01:55:49.980Z,26.67
2018-09-24T01:58:18.481Z,27.73
2018-09-24T02:00:47.011Z,28.37
2018-09-24T02:03:15.481Z,27.57
2018-09-24T02:05:44.066Z,27.50
2018-09-24T02:08:12.539Z,27.57
2018-09-24T02:10:41.073Z,26.77
2018-09-24T02:13:09.617Z,30.97
2018-09-24T02:15:38.258Z,31.83
2018-09-24T02:18:06.784Z,28.50
2018-09-24T02:20:41.322Z,32.90
2018-09-24T02:23:09.839Z,32.73
2018-09-24T02:25:39.622Z,32.00
2018-09-24T02:28:08.215Z,36.17
2018-09-24T02:30:36.835Z,36.17
2018-09-24T02:33:10.711Z,36.83
2018-09-24T02:35:42.914Z,37.00
2018-09-24T02:38:11.461Z,34.80
2018-09-24T02:40:39.989Z,27.23
2018-09-24T02:43:08.532Z,29.33
2018-09-24T02:45:37.063Z,27.77
2018-09-24T02:48:05.613Z,26.83
2018-09-24T02:50:37.985Z,29.73
2018-09-24T02:53:07.500Z,27.73
2018-09-24T02:55:36.012Z,23.17
2018-09-24T02:58:04.667Z,26.83
2018-09-24T03:00:33.527Z,23.37
2018-09-24T03:03:08.095Z,23.63
2018-09-24T03:05:36.751Z,25.73
2018-09-24T03:08:12.382Z,22.83
2018-09-24T03:10:41.382Z,23.47
2018-09-24T03:13:09.930Z,18.90
2018-09-24T03:15:39.758Z,19.77
2018-09-24T03:18:09.218Z,21.57
2018-09-24T03:20:43.135Z,19.87
2018-09-24T03:23:11.691Z,22.50
2018-09-24T03:25:40.592Z,21.60
2018-09-24T03:28:09.289Z,18.17
2018-09-24T03:30:40.837Z,15.03
2018-09-24T03:33:09.387Z,17.53
2018-09-24T03:35:37.941Z,18.93
2018-09-24T03:38:06.563Z,19.93
2018-09-24T03:40:35.173Z,17.60
2018-09-24T03:43:03.824Z,18.40
2018-09-24T03:45:32.357Z,15.77
2018-09-24T03:48:00.857Z,13.13
2018-09-24T03:50:29.355Z,21.73
2018-09-24T03:52:57.906Z,17.23
2018-09-24T03:55:26.540Z,13.37
2018-09-24T03:57:55.059Z,17.80
2018-09-24T04:00:23.616Z,20.00
2018-09-24T04:02:52.072Z,23.20
2018-09-24T04:05:25.896Z,19.10
2018-09-24T04:07:59.533Z,15.30
2018-09-24T04:10:33.191Z,18.40
2018-09-24T04:13:06.937Z,17.37
2018-09-24T04:15:40.891Z,13.50
2018-09-24T04:18:14.747Z,15.87
2018-09-24T04:20:48.401Z,11.00
2018-09-24T04:23:22.047Z,13.97
2018-09-24T04:25:55.893Z,16.10
2018-09-24T04:28:29.516Z,14.80
2018-09-24T04:31:03.327Z,15.83
2018-09-24T04:33:36.939Z,16.33
2018-09-24T04:36:10.681Z,15.50
2018-09-24T04:38:44.550Z,12.10
2018-09-24T04:41:18.182Z,13.97
2018-09-24T04:43:51.800Z,16.77
2018-09-24T04:46:25.384Z,16.80
2018-09-24T04:48:59.060Z,11.27
2018-09-24T04:51:32.722Z,17.23
2018-09-24T04:54:06.482Z,17.60
2018-09-24T04:56:40.246Z,14.20
2018-09-24T04:59:13.951Z,13.70
2018-09-24T05:01:47.787Z,13.97
2018-09-24T05:04:21.410Z,11.70
2018-09-24T05:06:55.252Z,13.57
2018-09-24T05:09:28.942Z,15.63
2018-09-24T05:12:02.759Z,17.13
2018-09-24T05:14:36.330Z,16.23
2018-09-24T05:17:10.251Z,13.93
2018-09-24T05:19:43.868Z,18.80
2018-09-24T05:22:17.671Z,13.67
2018-09-24T05:24:51.321Z,16.97
2018-09-24T05:27:25.159Z,12.37
2018-09-24T05:29:58.894Z,12.17
2018-09-24T05:32:32.810Z,11.93
2018-09-24T05:35:06.476Z,13.10
2018-09-24T05:37:40.068Z,11.07
2018-09-24T05:40:13.719Z,15.27
2018-09-24T05:42:47.400Z,11.40
2018-09-24T05:45:21.274Z,12.50
2018-09-24T05:47:54.985Z,10.47
2018-09-24T05:50:28.627Z,15.87
2018-09-24T05:53:02.219Z,12.30
2018-09-24T05:55:35.924Z,7.43
2018-09-24T05:58:09.836Z,8.23
2018-09-24T06:00:43.526Z,10.03
2018-09-24T06:03:17.128Z,8.50
2018-09-24T06:05:50.968Z,12.60
2018-09-24T06:08:24.794Z,8.57
2018-09-24T06:10:58.516Z,10.17
2018-09-24T06:13:32.534Z,10.10
2018-09-24T06:16:06.274Z,8.60
2018-09-24T06:18:40.209Z,10.63
2018-09-24T06:21:13.949Z,10.87
2018-09-24T06:23:47.647Z,14.37
2018-09-24T06:26:21.257Z,7.37
2018-09-24T06:28:55.029Z,8.67
2018-09-24T06:31:28.732Z,12.80
2018-09-24T06:34:02.394Z,7.20
2018-09-24T06:36:35.905Z,12.23
2018-09-24T06:39:10.332Z,10.10
2018-09-24T06:41:43.897Z,9.47
2018-09-24T06:44:17.738Z,7.87
2018-09-24T06:46:51.708Z,13.10
2018-09-24T06:49:25.343Z,6.30
2018-09-24T06:51:59.080Z,7.30
2018-09-24T06:54:32.829Z,10.87
2018-09-24T06:57:06.434Z,9.33
2018-09-24T06:59:40.313Z,8.90
2018-09-24T07:02:13.912Z,8.77
2018-09-24T07:04:47.608Z,6.37
2018-09-24T07:07:21.492Z,6.10
2018-09-24T07:09:55.115Z,8.97
2018-09-24T07:12:28.824Z,5.83
2018-09-24T07:15:02.737Z,9.53
2018-09-24T07:17:36.625Z,8.20
2018-09-24T07:20:10.402Z,7.60
2018-09-24T07:22:44.151Z,5.93
2018-09-24T07:25:17.907Z,7.43
2018-09-24T07:27:51.574Z,6.10
2018-09-24T07:30:25.338Z,6.83
2018-09-24T07:32:59.123Z,6.90
2018-09-24T07:35:32.843Z,7.57
2018-09-24T07:38:06.451Z,5.57
2018-09-24T07:40:40.443Z,4.30
2018-09-24T07:43:14.083Z,6.73
2018-09-24T07:45:47.893Z,8.23
2018-09-24T07:48:21.538Z,9.50
2018-09-24T07:50:55.436Z,5.57
2018-09-24T07:53:29.109Z,8.30
2018-09-24T07:56:02.932Z,5.87
2018-09-24T07:58:36.920Z,7.33
2018-09-24T08:01:10.584Z,5.67
2018-09-24T08:06:35.339Z,7.03
2018-09-24T08:09:09.287Z,6.53
2018-09-24T08:11:43.048Z,7.60
2018-09-24T08:14:16.819Z,5.03
2018-09-24T08:16:50.730Z,6.20
2018-09-24T08:19:24.697Z,7.07
2018-09-24T08:21:58.596Z,7.27
2018-09-24T08:24:32.556Z,7.47
2018-09-24T08:27:06.377Z,8.03
2018-09-24T08:29:40.267Z,4.67
2018-09-24T08:32:14.080Z,4.60
2018-09-24T08:34:47.920Z,5.25
2018-09-24T08:37:21.554Z,9.25
2018-09-24T08:39:55.266Z,4.42
2018-09-24T08:42:29.129Z,6.12
2018-09-24T08:45:03.049Z,3.95
2018-09-24T08:47:36.791Z,5.42
2018-09-24T08:50:10.662Z,5.83
2018-09-24T08:52:44.442Z,4.40
2018-09-24T08:55:18.277Z,5.87
2018-09-24T08:57:52.193Z,7.45
2018-09-24T09:00:26.192Z,6.37
2018-09-24T09:03:00.134Z,5.28
2018-09-24T09:05:34.168Z,4.12
2018-09-24T09:08:08.208Z,7.50
2018-09-24T09:10:42.264Z,7.10
2018-09-24T09:13:16.229Z,5.62
2018-09-24T09:15:50.187Z,6.85
2018-09-24T09:18:24.228Z,4.60
2018-09-24T09:20:57.919Z,2.70
2018-09-24T09:23:31.797Z,4.37
2018-09-24T09:26:05.804Z,4.50
2018-09-24T09:28:39.712Z,4.95
2018-09-24T09:31:13.760Z,4.65
2018-09-24T09:33:47.697Z,3.72
2018-09-24T09:36:22.305Z,4.80
2018-09-24T09:38:56.161Z,9.40
2018-09-24T09:41:29.991Z,5.37
2018-09-24T09:44:03.791Z,4.90
2018-09-24T09:46:37.597Z,3.33
2018-09-24T09:49:11.473Z,3.42
2018-09-24T09:51:45.324Z,5.65
2018-09-24T09:54:19.243Z,6.50
2018-09-24T09:56:52.928Z,3.58
2018-09-24T09:59:26.744Z,3.92
2018-09-24T10:02:00.726Z,3.12
2018-09-24T10:04:34.628Z,2.12
2018-09-24T10:07:08.416Z,4.55
2018-09-24T10:09:42.208Z,6.87
2018-09-24T10:12:16.508Z,6.87
2018-09-24T10:14:50.201Z,3.10
2018-09-24T10:17:24.276Z,2.75
2018-09-24T10:19:58.091Z,2.65
2018-09-24T10:22:32.059Z,2.85
2018-09-24T10:25:05.900Z,4.22
2018-09-24T10:27:39.782Z,3.85
2018-09-24T10:30:13.779Z,4.22
2018-09-24T10:32:47.633Z,3.47
2018-09-24T10:35:21.582Z,3.90
2018-09-24T10:37:55.401Z,1.87
2018-09-24T10:40:29.197Z,2.90
2018-09-24T10:43:03.436Z,3.83
2018-09-24T10:45:37.112Z,6.37
2018-09-24T10:48:11.603Z,5.20
2018-09-24T10:50:50.478Z,4.10
2018-09-24T10:53:24.416Z,4.13
2018-09-24T10:55:58.500Z,3.03
2018-09-24T10:58:32.520Z,1.60
2018-09-24T11:01:06.411Z,1.60
2018-09-24T11:03:40.742Z,2.83
2018-09-24T11:06:14.560Z,2.10
2018-09-24T11:08:48.220Z,1.70
2018-09-24T11:11:22.392Z,3.37
2018-09-24T11:13:56.254Z,5.87
2018-09-24T11:16:30.130Z,4.37
2018-09-24T11:19:03.904Z,2.03
2018-09-24T11:21:38.027Z,2.97
2018-09-24T11:24:12.786Z,4.27
2018-09-24T11:26:47.747Z,2.53
2018-09-24T11:29:21.601Z,5.12
2018-09-24T11:31:55.415Z,2.92
2018-09-24T11:34:29.212Z,3.65
2018-09-24T11:37:02.994Z,2.00
2018-09-24T11:39:36.837Z,3.95
2018-09-24T11:42:10.387Z,3.12
2018-09-24T11:44:44.567Z,3.17
2018-09-24T11:47:18.688Z,1.80
2018-09-24T11:49:52.436Z,3.15
2018-09-24T11:52:26.484Z,3.05
2018-09-24T11:55:00.288Z,1.98
2018-09-24T11:57:34.240Z,3.15
2018-09-24T12:00:08.101Z,1.70
2018-09-24T12:02:42.112Z,2.70
2018-09-24T12:05:16.276Z,3.22
2018-09-24T12:07:49.974Z,2.83
2018-09-24T12:10:23.828Z,1.80
2018-09-24T12:12:57.707Z,1.10
2018-09-24T12:15:31.295Z,2.33
2018-09-24T12:18:05.071Z,2.93
2018-09-24T12:20:39.054Z,2.10
2018-09-24T12:23:12.976Z,2.67
2018-09-24T12:25:46.708Z,3.07
2018-09-24T12:28:20.525Z,1.40
2018-09-24T12:30:54.535Z,1.93
2018-09-24T12:33:28.452Z,2.33
2018-09-24T12:36:02.153Z,1.87
2018-09-24T12:38:35.933Z,4.20
2018-09-24T12:41:09.964Z,2.17
2018-09-24T12:43:43.962Z,1.83
2018-09-24T12:46:17.896Z,2.80
2018-09-24T12:48:51.626Z,3.53
2018-09-24T12:51:25.597Z,4.30
2018-09-24T12:53:59.273Z,4.60
2018-09-24T12:56:33.043Z,4.97
2018-09-24T12:59:06.900Z,1.80
2018-09-24T13:01:40.619Z,2.90
2018-09-24T13:04:14.639Z,2.07
2018-09-24T13:06:48.811Z,2.70
2018-09-24T13:09:22.632Z,1.90
2018-09-24T13:11:56.837Z,2.10
2018-09-24T13:14:30.567Z,3.00
2018-09-24T13:17:04.411Z,4.07
2018-09-24T13:19:38.121Z,3.40
2018-09-24T13:22:12.035Z,3.73
2018-09-24T13:24:45.693Z,4.40
2018-09-24T13:27:19.663Z,6.87
2018-09-24T13:29:54.120Z,3.40
2018-09-24T13:35:30.019Z,3.80
2018-09-24T13:38:04.266Z,3.97
2018-09-24T13:40:37.851Z,4.33
2018-09-24T13:43:11.617Z,5.03
2018-09-24T13:45:45.758Z,4.13
2018-09-24T13:48:19.497Z,4.20
2018-09-24T13:50:53.124Z,3.40
2018-09-24T13:53:26.806Z,4.13
2018-09-24T13:56:00.427Z,4.20
2018-09-24T13:58:34.259Z,4.90
2018-09-24T14:01:07.928Z,4.10
2018-09-24T14:03:41.707Z,2.80
2018-09-24T14:06:15.397Z,7.43
2018-09-24T14:08:49.408Z,1.63
2018-09-24T14:11:23.229Z,3.67
2018-09-24T14:13:57.715Z,3.60
2018-09-24T14:16:31.476Z,3.20
2018-09-24T14:19:05.292Z,5.77
2018-09-24T14:21:38.856Z,3.73
2018-09-24T14:24:12.374Z,3.27
2018-09-24T14:26:46.140Z,4.80
2018-09-24T14:29:19.945Z,5.40
2018-09-24T14:31:53.743Z,4.47
2018-09-24T14:34:27.571Z,6.07
2018-09-24T14:37:01.337Z,5.37
2018-09-24T14:39:35.345Z,5.60
2018-09-24T14:42:09.364Z,4.13
2018-09-24T14:44:43.276Z,3.80
2018-09-24T14:47:17.234Z,2.50
2018-09-24T14:49:51.186Z,4.43
2018-09-24T14:52:25.062Z,2.47
2018-09-24T14:54:58.633Z,9.33
2018-09-24T14:57:32.351Z,2.10
2018-09-24T15:00:06.132Z,3.43
2018-09-24T15:02:39.817Z,4.23
2018-09-24T15:05:13.680Z,4.03
2018-09-24T15:07:47.854Z,2.80
2018-09-24T15:10:21.675Z,4.80
2018-09-24T15:12:55.720Z,1.60
2018-09-24T15:15:29.529Z,3.10
2018-09-24T15:18:03.294Z,2.93
2018-09-24T15:20:37.200Z,4.43
2018-09-24T15:23:10.887Z,3.23
2018-09-24T15:25:44.610Z,2.70
2018-09-24T15:28:18.412Z,2.93
2018-09-24T15:30:52.274Z,3.00
2018-09-24T15:33:26.276Z,25.53
2018-09-24T15:36:00.031Z,8.97
2018-09-24T15:38:33.832Z,6.70
2018-09-24T15:41:07.826Z,9.77
2018-09-24T15:43:41.751Z,4.50
2018-09-24T15:46:15.752Z,6.53
2018-09-24T15:48:49.574Z,6.33
2018-09-24T15:51:23.302Z,4.73
2018-09-24T15:53:56.865Z,10.50
2018-09-24T15:56:31.255Z,3.40
2018-09-24T15:59:05.334Z,4.67
2018-09-24T16:01:39.330Z,3.83
2018-09-24T16:04:13.609Z,9.60
2018-09-24T16:06:47.484Z,6.20
2018-09-24T16:09:21.306Z,6.50
2018-09-24T16:11:54.971Z,4.57
2018-09-24T16:14:28.712Z,5.93
2018-09-24T16:17:02.420Z,7.57
2018-09-24T16:19:36.324Z,5.20
2018-09-24T16:22:09.960Z,5.30
2018-09-24T16:24:43.786Z,6.63
2018-09-24T16:27:17.571Z,4.07
2018-09-24T16:29:51.507Z,5.63
2018-09-24T16:32:25.209Z,5.00
2018-09-24T16:34:59.053Z,6.33
2018-09-24T16:37:34.168Z,7.43
2018-09-24T16:40:07.774Z,2.40
2018-09-24T16:42:41.764Z,5.30
2018-09-24T16:45:15.427Z,2.73
2018-09-24T16:47:49.525Z,7.70
2018-09-24T16:50:23.388Z,6.07
2018-09-24T16:52:56.987Z,2.30
2018-09-24T16:55:30.623Z,7.23
2018-09-24T16:58:04.422Z,4.47
2018-09-24T17:00:38.195Z,24.93
2018-09-24T17:03:12.208Z,3.53
2018-09-24T17:05:46.149Z,2.93
2018-09-24T17:08:19.885Z,8.20
2018-09-24T17:10:53.869Z,3.80
2018-09-24T17:13:27.809Z,4.93
2018-09-24T17:16:01.737Z,8.50
2018-09-24T17:18:35.429Z,3.43
2018-09-24T17:21:09.707Z,3.13
2018-09-24T17:23:43.385Z,4.60
2018-09-24T17:26:17.186Z,5.10
2018-09-24T17:28:51.028Z,4.23
2018-09-24T17:31:24.644Z,6.10
2018-09-24T17:33:58.486Z,4.50
2018-09-24T17:36:32.241Z,5.10
2018-09-24T17:39:06.143Z,9.57
2018-09-24T17:41:39.819Z,4.20
2018-09-24T17:44:13.722Z,4.27
2018-09-24T17:46:47.453Z,6.73
2018-09-24T17:49:21.315Z,7.67
2018-09-24T17:51:55.565Z,6.73
2018-09-24T17:54:29.509Z,8.53
2018-09-24T17:57:03.381Z,3.50
2018-09-24T17:59:37.156Z,6.53
2018-09-24T18:02:10.884Z,5.23
2018-09-24T18:04:44.907Z,3.67
2018-09-24T18:07:18.878Z,3.97
2018-09-24T18:09:52.568Z,4.87
2018-09-24T18:12:26.271Z,6.53
2018-09-24T18:15:00.105Z,7.57
2018-09-24T18:17:33.958Z,6.00
2018-09-24T18:20:08.060Z,3.97
2018-09-24T18:22:41.947Z,3.10
2018-09-24T18:25:15.845Z,6.03
2018-09-24T18:27:50.101Z,6.37
2018-09-24T18:30:23.908Z,6.77
2018-09-24T18:32:57.757Z,4.23
2018-09-24T18:35:31.755Z,8.00
2018-09-24T18:38:05.600Z,8.53
2018-09-24T18:40:41.844Z,6.37
2018-09-24T18:43:15.822Z,5.37
2018-09-24T18:45:49.749Z,2.93
2018-09-24T18:48:23.919Z,5.23
2018-09-24T18:50:57.612Z,2.77
2018-09-24T18:53:31.339Z,5.17
2018-09-24T18:56:05.168Z,3.00
2018-09-24T18:58:38.884Z,7.53
2018-09-24T19:01:12.950Z,6.90
2018-09-24T19:03:46.797Z,5.63
2018-09-24T19:06:20.591Z,3.80
2018-09-24T19:08:54.602Z,5.70
2018-09-24T19:11:28.513Z,2.57
2018-09-24T19:14:02.311Z,4.37
2018-09-24T19:16:36.202Z,6.00
2018-09-24T19:19:09.999Z,6.10
2018-09-24T19:21:43.592Z,7.47
2018-09-24T19:24:17.544Z,5.57
2018-09-24T19:26:51.302Z,4.80
2018-09-24T19:29:26.056Z,4.37
2018-09-24T19:31:59.954Z,5.87
2018-09-24T19:34:33.998Z,5.03
2018-09-24T19:37:07.841Z,4.57
2018-09-24T19:39:41.325Z,5.13
2018-09-24T19:42:15.351Z,7.50
2018-09-24T19:44:49.133Z,7.17
2018-09-24T19:47:22.972Z,4.20
2018-09-24T19:49:56.648Z,3.53
2018-09-24T19:52:30.290Z,4.93
2018-09-24T19:55:04.227Z,5.27
2018-09-24T19:57:37.908Z,6.70
2018-09-24T20:00:11.725Z,6.23
2018-09-24T20:02:45.289Z,4.57
2018-09-24T20:05:19.129Z,9.87
2018-09-24T20:07:52.841Z,2.33
2018-09-24T20:10:26.690Z,4.53
2018-09-24T20:13:00.395Z,7.57
2018-09-24T20:15:34.204Z,5.13
2018-09-24T20:18:07.956Z,9.13
2018-09-24T20:20:41.821Z,8.60
2018-09-24T20:23:15.634Z,2.27
2018-09-24T20:25:49.447Z,3.60
2018-09-24T20:28:22.984Z,5.40
2018-09-24T20:30:56.747Z,3.33
2018-09-24T20:33:30.628Z,5.17
2018-09-24T20:36:04.351Z,5.07
2018-09-24T20:38:38.087Z,2.87
2018-09-24T20:41:11.859Z,5.17
2018-09-24T20:43:45.571Z,2.70
2018-09-24T20:46:19.508Z,7.13
2018-09-24T20:48:53.353Z,3.73
2018-09-24T20:51:27.003Z,8.60
2018-09-24T20:54:00.795Z,5.97
2018-09-24T20:56:34.568Z,5.57
2018-09-24T20:59:08.314Z,4.80
2018-09-24T21:01:42.152Z,4.47
2018-09-24T21:04:16.021Z,3.60
2018-09-24T21:06:49.587Z,6.27
2018-09-24T21:09:23.306Z,3.93
2018-09-24T21:11:57.140Z,5.63
2018-09-24T21:14:31.872Z,3.20
2018-09-24T21:17:05.773Z,6.93
2018-09-24T21:19:39.520Z,6.83
2018-09-24T21:22:13.274Z,4.13
2018-09-24T21:24:47.032Z,5.87
2018-09-24T21:27:20.891Z,5.07
2018-09-24T21:29:54.806Z,3.90
2018-09-24T21:32:28.584Z,5.60
2018-09-24T21:35:02.480Z,7.13
2018-09-24T21:37:36.410Z,5.53
2018-09-24T21:40:10.115Z,6.07
2018-09-24T21:42:43.881Z,4.30
2018-09-24T21:45:17.618Z,4.10
2018-09-24T21:47:51.364Z,4.80
2018-09-24T21:50:25.132Z,3.73
2018-09-24T21:52:59.019Z,3.17
2018-09-24T21:55:33.261Z,4.70
2018-09-24T21:58:07.315Z,7.07
2018-09-24T22:00:41.330Z,4.37
2018-09-24T22:03:15.047Z,5.97
2018-09-24T22:05:48.829Z,7.60
2018-09-24T22:08:22.581Z,5.97
2018-09-24T22:10:56.414Z,5.20
2018-09-24T22:13:30.313Z,5.67
2018-09-24T22:16:04.039Z,5.43
2018-09-24T22:18:37.830Z,2.37
2018-09-24T22:21:11.624Z,3.40
2018-09-24T22:23:45.347Z,2.30
2018-09-24T22:26:19.065Z,3.20
2018-09-24T22:28:52.894Z,4.60
2018-09-24T22:31:26.802Z,4.37
2018-09-24T22:34:00.687Z,3.77
2018-09-24T22:36:34.508Z,4.07
2018-09-24T22:39:08.396Z,3.70
2018-09-24T22:41:42.166Z,5.13
2018-09-24T22:44:16.067Z,5.80
2018-09-24T22:46:49.918Z,4.43
2018-09-24T22:49:23.956Z,4.13
2018-09-24T22:51:57.713Z,4.67
2018-09-24T22:54:31.416Z,5.10
2018-09-24T22:57:05.161Z,6.27
2018-09-24T22:59:38.871Z,4.83
2018-09-24T23:02:12.608Z,6.40
2018-09-24T23:04:46.450Z,6.47
2018-09-24T23:07:20.218Z,4.60
2018-09-24T23:09:53.908Z,6.77
2018-09-24T23:12:27.662Z,5.53
2018-09-24T23:15:01.357Z,5.97
2018-09-24T23:17:35.144Z,4.27
2018-09-24T23:20:08.838Z,6.30
2018-09-24T23:22:42.592Z,2.80
2018-09-24T23:25:16.396Z,4.40
2018-09-24T23:27:50.171Z,5.97
2018-09-24T23:30:23.948Z,2.67
2018-09-24T23:32:57.819Z,5.10
2018-09-24T23:35:31.580Z,4.93
2018-09-24T23:38:05.548Z,4.27
2018-09-24T23:40:39.295Z,3.47
2018-09-24T23:43:13.177Z,8.27
2018-09-24T23:45:47.340Z,6.27
2018-09-24T23:48:21.007Z,6.27
2018-09-24T23:50:54.844Z,3.57
2018-09-24T23:53:28.693Z,3.83
2018-09-24T23:56:02.420Z,7.90
2018-09-24T23:58:36.470Z,5.23
